sensor_id;sensor_type;location;lat;lon;timestamp;pressure;altitude;pressure_sealevel;temperature;humidity
47763;BME280;33526;42.690;23.322;2024-02-21T00:01:06;95737.47;;;5.48;100.00
47763;BME280;33526;42.690;23.322;2024-02-21T00:06:07;95731.19;;;5.44;100.00
47763;BME280;33526;42.690;23.322;2024-02-21T00:10:58;95616.53;;;4.76;100.00
47763;BME280;33526;42.690;23.322;2024-02-21T00:13:50;95549.22;;;4.21;100.00
47763;BME280;33526;42.690;23.322;2024-02-21T00:16:38;95641.75;;;4.85;100.00
47763;BME280;33526;42.690;23.322;2024-02-21T00:19:09;95585.44;;;4.34;100.00
47763;BME280;33526;42.690;23.322;2024-02-21T00:21:42;95575.25;;;4.27;100.00
47763;BME280;33526;42.690;23.322;2024-02-21T00:24:29;95646.56;;;4.81;100.00
47763;BME280;33526;42.690;23.322;2024-02-21T00:27:00;95536.66;;;4.16;100.00
47763;BME280;33526;42.690;23.322;2024-02-21T00:29:33;95635.56;;;4.74;100.00
47763;BME280;33526;42.690;23.322;2024-02-21T00:32:06;95628.72;;;4.82;100.00
47763;BME280;33526;42.690;23.322;2024-02-21T00:34:34;95634.16;;;4.89;100.00
47763;BME280;33526;42.690;23.322;2024-02-21T00:37:00;95557.03;;;4.30;100.00
47763;BME280;33526;42.690;23.322;2024-02-21T00:39:26;95653.56;;;4.89;100.00
47763;BME280;33526;42.690;23.322;2024-02-21T00:42:04;95526.50;;;4.06;100.00
47763;BME280;33526;42.690;23.322;2024-02-21T00:44:35;95615.53;;;4.63;100.00
47763;BME280;33526;42.690;23.322;2024-02-21T00:47:05;95645.34;;;4.82;100.00
47763;BME280;33526;42.690;23.322;2024-02-21T00:49:34;95714.22;;;5.38;100.00
47763;BME280;33526;42.690;23.322;2024-02-21T00:54:36;95502.13;;;3.94;100.00
47763;BME280;33526;42.690;23.322;2024-02-21T00:59:53;95567.69;;;4.31;100.00
47763;BME280;33526;42.690;23.322;2024-02-21T01:02:41;95702.47;;;5.30;100.00
47763;BME280;33526;42.690;23.322;2024-02-21T01:05:09;95562.81;;;4.39;100.00
47763;BME280;33526;42.690;23.322;2024-02-21T01:07:46;95538.09;;;4.25;100.00
47763;BME280;33526;42.690;23.322;2024-02-21T01:10:13;95539.59;;;4.33;100.00
47763;BME280;33526;42.690;23.322;2024-02-21T01:12:39;95691.53;;;5.20;100.00
47763;BME280;33526;42.690;23.322;2024-02-21T01:15:06;95530.53;;;3.98;100.00
47763;BME280;33526;42.690;23.322;2024-02-21T01:17:39;95526.94;;;4.01;100.00
47763;BME280;33526;42.690;23.322;2024-02-21T01:20:09;95692.75;;;5.19;100.00
47763;BME280;33526;42.690;23.322;2024-02-21T01:22:36;95613.88;;;4.69;100.00
47763;BME280;33526;42.690;23.322;2024-02-21T01:25:03;95554.72;;;4.25;100.00
47763;BME280;33526;42.690;23.322;2024-02-21T01:27:31;95560.00;;;4.43;100.00
47763;BME280;33526;42.690;23.322;2024-02-21T01:29:59;95571.41;;;4.48;100.00
47763;BME280;33526;42.690;23.322;2024-02-21T01:32:28;95580.41;;;4.56;100.00
47763;BME280;33526;42.690;23.322;2024-02-21T01:34:56;95612.34;;;4.91;100.00
47763;BME280;33526;42.690;23.322;2024-02-21T01:37:36;95601.75;;;4.86;100.00
47763;BME280;33526;42.690;23.322;2024-02-21T01:40:10;95676.72;;;5.30;100.00
47763;BME280;33526;42.690;23.322;2024-02-21T01:42:41;95457.81;;;3.97;100.00
47763;BME280;33526;42.690;23.322;2024-02-21T01:47:38;95605.97;;;4.94;100.00
47763;BME280;33526;42.690;23.322;2024-02-21T01:50:04;95664.72;;;5.36;100.00
47763;BME280;33526;42.690;23.322;2024-02-21T01:52:35;95482.22;;;4.06;100.00
47763;BME280;33526;42.690;23.322;2024-02-21T01:55:04;95549.31;;;4.72;100.00
47763;BME280;33526;42.690;23.322;2024-02-21T02:00:36;95475.66;;;4.24;100.00
47763;BME280;33526;42.690;23.322;2024-02-21T02:03:06;95481.13;;;4.27;100.00
47763;BME280;33526;42.690;23.322;2024-02-21T02:05:34;95602.97;;;5.09;100.00
47763;BME280;33526;42.690;23.322;2024-02-21T02:08:01;95586.28;;;4.89;100.00
47763;BME280;33526;42.690;23.322;2024-02-21T02:12:53;95484.41;;;4.18;100.00
47763;BME280;33526;42.690;23.322;2024-02-21T02:15:24;95641.47;;;5.30;100.00
47763;BME280;33526;42.690;23.322;2024-02-21T02:17:51;95659.47;;;5.46;100.00
47763;BME280;33526;42.690;23.322;2024-02-21T02:20:18;95489.84;;;4.26;100.00
47763;BME280;33526;42.690;23.322;2024-02-21T02:23:51;95467.13;;;4.11;100.00
47763;BME280;33526;42.690;23.322;2024-02-21T02:25:58;95475.94;;;4.02;100.00
47763;BME280;33526;42.690;23.322;2024-02-21T02:28:28;95653.88;;;5.22;100.00
47763;BME280;33526;42.690;23.322;2024-02-21T02:30:54;95515.13;;;4.28;100.00
47763;BME280;33526;42.690;23.322;2024-02-21T02:33:38;95467.38;;;3.93;100.00
47763;BME280;33526;42.690;23.322;2024-02-21T02:36:07;95545.81;;;4.40;100.00
47763;BME280;33526;42.690;23.322;2024-02-21T02:38:33;95499.03;;;4.19;100.00
47763;BME280;33526;42.690;23.322;2024-02-21T02:41:00;95460.94;;;3.99;100.00
47763;BME280;33526;42.690;23.322;2024-02-21T02:43:27;95474.22;;;4.12;100.00
47763;BME280;33526;42.690;23.322;2024-02-21T02:53:35;95466.44;;;4.03;100.00
47763;BME280;33526;42.690;23.322;2024-02-21T02:56:02;95482.84;;;4.17;100.00
47763;BME280;33526;42.690;23.322;2024-02-21T02:58:31;95509.44;;;4.38;100.00
47763;BME280;33526;42.690;23.322;2024-02-21T03:00:58;95662.34;;;5.39;100.00
47763;BME280;33526;42.690;23.322;2024-02-21T03:03:28;95488.28;;;4.25;100.00
47763;BME280;33526;42.690;23.322;2024-02-21T03:05:54;95470.22;;;4.16;100.00
47763;BME280;33526;42.690;23.322;2024-02-21T03:08:21;95551.59;;;4.77;100.00
47763;BME280;33526;42.690;23.322;2024-02-21T03:10:48;95487.34;;;4.35;100.00
47763;BME280;33526;42.690;23.322;2024-02-21T03:13:13;95561.66;;;4.67;100.00
47763;BME280;33526;42.690;23.322;2024-02-21T03:15:40;95479.97;;;4.25;100.00
47763;BME280;33526;42.690;23.322;2024-02-21T03:18:07;95528.22;;;4.54;100.00
47763;BME280;33526;42.690;23.322;2024-02-21T03:23:02;95531.34;;;4.56;100.00
47763;BME280;33526;42.690;23.322;2024-02-21T03:25:33;95662.28;;;5.42;100.00
47763;BME280;33526;42.690;23.322;2024-02-21T03:28:01;95521.41;;;4.32;100.00
47763;BME280;33526;42.690;23.322;2024-02-21T03:30:27;95630.22;;;5.14;100.00
47763;BME280;33526;42.690;23.322;2024-02-21T03:33:19;95528.69;;;4.49;100.00
47763;BME280;33526;42.690;23.322;2024-02-21T03:36:14;95574.56;;;4.77;100.00
47763;BME280;33526;42.690;23.322;2024-02-21T03:38:47;95514.22;;;4.38;100.00
47763;BME280;33526;42.690;23.322;2024-02-21T03:41:19;95684.41;;;5.46;100.00
47763;BME280;33526;42.690;23.322;2024-02-21T03:43:45;95687.56;;;5.48;100.00
47763;BME280;33526;42.690;23.322;2024-02-21T03:46:12;95506.19;;;4.16;100.00
47763;BME280;33526;42.690;23.322;2024-02-21T03:48:43;95636.72;;;5.04;100.00
47763;BME280;33526;42.690;23.322;2024-02-21T03:51:17;95572.31;;;4.69;100.00
47763;BME280;33526;42.690;23.322;2024-02-21T03:54:05;95553.13;;;4.54;100.00
47763;BME280;33526;42.690;23.322;2024-02-21T03:56:40;95590.38;;;4.77;100.00
47763;BME280;33526;42.690;23.322;2024-02-21T03:59:10;95678.22;;;5.34;100.00
47763;BME280;33526;42.690;23.322;2024-02-21T04:01:38;95530.81;;;4.38;100.00
47763;BME280;33526;42.690;23.322;2024-02-21T04:04:04;95591.59;;;4.76;100.00
47763;BME280;33526;42.690;23.322;2024-02-21T04:06:30;95560.75;;;4.47;100.00
47763;BME280;33526;42.690;23.322;2024-02-21T04:09:00;95506.75;;;4.04;100.00
47763;BME280;33526;42.690;23.322;2024-02-21T04:11:29;95499.19;;;4.08;100.00
47763;BME280;33526;42.690;23.322;2024-02-21T04:13:56;95677.41;;;5.38;100.00
47763;BME280;33526;42.690;23.322;2024-02-21T04:16:22;95502.22;;;4.17;100.00
47763;BME280;33526;42.690;23.322;2024-02-21T04:18:47;95594.38;;;4.76;100.00
47763;BME280;33526;42.690;23.322;2024-02-21T04:21:18;95493.91;;;4.17;100.00
47763;BME280;33526;42.690;23.322;2024-02-21T04:23:54;95653.94;;;5.19;100.00
47763;BME280;33526;42.690;23.322;2024-02-21T04:28:54;95499.44;;;4.17;100.00
47763;BME280;33526;42.690;23.322;2024-02-21T04:31:20;95609.22;;;4.89;100.00
47763;BME280;33526;42.690;23.322;2024-02-21T04:33:47;95539.50;;;4.40;100.00
47763;BME280;33526;42.690;23.322;2024-02-21T04:36:12;95483.00;;;4.07;100.00
47763;BME280;33526;42.690;23.322;2024-02-21T04:38:39;95616.34;;;4.90;100.00
47763;BME280;33526;42.690;23.322;2024-02-21T04:41:06;95575.50;;;4.67;100.00
47763;BME280;33526;42.690;23.322;2024-02-21T04:46:00;95530.13;;;4.30;100.00
47763;BME280;33526;42.690;23.322;2024-02-21T04:48:28;95679.09;;;5.31;100.00
47763;BME280;33526;42.690;23.322;2024-02-21T04:51:04;95619.94;;;4.87;100.00
47763;BME280;33526;42.690;23.322;2024-02-21T04:58:53;95561.28;;;4.38;100.00
47763;BME280;33526;42.690;23.322;2024-02-21T05:01:28;95498.19;;;3.95;100.00
47763;BME280;33526;42.690;23.322;2024-02-21T05:03:54;95501.44;;;3.86;100.00
47763;BME280;33526;42.690;23.322;2024-02-21T05:06:20;95540.16;;;4.20;100.00
47763;BME280;33526;42.690;23.322;2024-02-21T05:09:05;95495.00;;;3.96;100.00
47763;BME280;33526;42.690;23.322;2024-02-21T05:11:33;95622.69;;;4.87;100.00
47763;BME280;33526;42.690;23.322;2024-02-21T05:14:03;95679.16;;;5.28;100.00
47763;BME280;33526;42.690;23.322;2024-02-21T05:16:30;95690.97;;;5.32;100.00
47763;BME280;33526;42.690;23.322;2024-02-21T05:21:39;95697.91;;;5.44;100.00
47763;BME280;33526;42.690;23.322;2024-02-21T05:24:18;95645.69;;;5.15;100.00
47763;BME280;33526;42.690;23.322;2024-02-21T05:26:56;95564.22;;;4.54;100.00
47763;BME280;33526;42.690;23.322;2024-02-21T05:32:42;95606.81;;;4.91;100.00
47763;BME280;33526;42.690;23.322;2024-02-21T05:40:21;95515.38;;;4.10;100.00
47763;BME280;33526;42.690;23.322;2024-02-21T05:42:50;95623.31;;;4.98;100.00
47763;BME280;33526;42.690;23.322;2024-02-21T05:45:17;95626.59;;;4.93;100.00
47763;BME280;33526;42.690;23.322;2024-02-21T05:47:44;95562.28;;;4.51;100.00
47763;BME280;33526;42.690;23.322;2024-02-21T05:52:51;95559.88;;;4.53;100.00
47763;BME280;33526;42.690;23.322;2024-02-21T05:55:30;95697.16;;;5.40;100.00
47763;BME280;33526;42.690;23.322;2024-02-21T05:58:04;95530.56;;;4.29;100.00
47763;BME280;33526;42.690;23.322;2024-02-21T06:00:32;95571.41;;;4.48;100.00
47763;BME280;33526;42.690;23.322;2024-02-21T06:03:01;95710.47;;;5.52;100.00
47763;BME280;33526;42.690;23.322;2024-02-21T06:08:07;95558.22;;;4.59;100.00
47763;BME280;33526;42.690;23.322;2024-02-21T06:10:35;95548.31;;;4.58;100.00
47763;BME280;33526;42.690;23.322;2024-02-21T06:13:06;95638.81;;;5.23;100.00
47763;BME280;33526;42.690;23.322;2024-02-21T06:18:20;95622.66;;;5.42;100.00
47763;BME280;33526;42.690;23.322;2024-02-21T06:23:54;95663.13;;;5.63;100.00
47763;BME280;33526;42.690;23.322;2024-02-21T06:29:38;95579.44;;;5.21;100.00
47763;BME280;33526;42.690;23.322;2024-02-21T06:32:05;95607.16;;;5.44;100.00
47763;BME280;33526;42.690;23.322;2024-02-21T06:34:35;95726.97;;;6.10;100.00
47763;BME280;33526;42.690;23.322;2024-02-21T06:37:16;95562.41;;;4.95;100.00
47763;BME280;33526;42.690;23.322;2024-02-21T06:39:48;95686.56;;;5.58;100.00
47763;BME280;33526;42.690;23.322;2024-02-21T06:42:24;95581.13;;;4.87;100.00
47763;BME280;33526;42.690;23.322;2024-02-21T06:47:43;95582.13;;;5.01;100.00
47763;BME280;33526;42.690;23.322;2024-02-21T06:50:23;95614.75;;;5.40;100.00
47763;BME280;33526;42.690;23.322;2024-02-21T07:03:27;95637.97;;;5.97;100.00
47763;BME280;33526;42.690;23.322;2024-02-21T07:06:09;95659.03;;;6.38;100.00
47763;BME280;33526;42.690;23.322;2024-02-21T07:08:50;95623.81;;;6.31;100.00
47763;BME280;33526;42.690;23.322;2024-02-21T07:11:19;95657.16;;;6.51;100.00
47763;BME280;33526;42.690;23.322;2024-02-21T07:13:45;95581.34;;;6.15;100.00
47763;BME280;33526;42.690;23.322;2024-02-21T07:16:14;95602.59;;;6.01;100.00
47763;BME280;33526;42.690;23.322;2024-02-21T07:18:55;95699.91;;;6.58;100.00
47763;BME280;33526;42.690;23.322;2024-02-21T07:21:39;95649.19;;;6.34;100.00
47763;BME280;33526;42.690;23.322;2024-02-21T07:24:07;95764.59;;;7.18;100.00
47763;BME280;33526;42.690;23.322;2024-02-21T07:26:36;95670.69;;;6.49;100.00
47763;BME280;33526;42.690;23.322;2024-02-21T07:29:06;95604.69;;;6.17;100.00
47763;BME280;33526;42.690;23.322;2024-02-21T07:31:51;95619.69;;;6.60;100.00
47763;BME280;33526;42.690;23.322;2024-02-21T07:36:55;95748.03;;;7.84;98.16
47763;BME280;33526;42.690;23.322;2024-02-21T07:39:25;95611.63;;;6.65;100.00
47763;BME280;33526;42.690;23.322;2024-02-21T07:42:05;95672.88;;;7.15;98.83
47763;BME280;33526;42.690;23.322;2024-02-21T07:44:38;95669.22;;;6.65;100.00
47763;BME280;33526;42.690;23.322;2024-02-21T07:47:12;95728.22;;;7.09;100.00
47763;BME280;33526;42.690;23.322;2024-02-21T07:49:46;95700.91;;;7.24;100.00
47763;BME280;33526;42.690;23.322;2024-02-21T07:52:16;95699.59;;;7.28;99.41
47763;BME280;33526;42.690;23.322;2024-02-21T07:54:44;95624.16;;;6.74;98.45
47763;BME280;33526;42.690;23.322;2024-02-21T07:57:10;95709.69;;;7.22;98.89
47763;BME280;33526;42.690;23.322;2024-02-21T08:02:06;95726.59;;;7.48;99.52
47763;BME280;33526;42.690;23.322;2024-02-21T08:04:35;95697.69;;;7.25;100.00
47763;BME280;33526;42.690;23.322;2024-02-21T08:07:08;95585.19;;;6.77;97.43
47763;BME280;33526;42.690;23.322;2024-02-21T08:09:57;95589.66;;;6.71;96.67
47763;BME280;33526;42.690;23.322;2024-02-21T08:12:26;95728.03;;;7.89;93.24
47763;BME280;33526;42.690;23.322;2024-02-21T08:17:27;95760.03;;;7.97;92.64
47763;BME280;33526;42.690;23.322;2024-02-21T08:20:13;95694.38;;;7.31;95.54
47763;BME280;33526;42.690;23.322;2024-02-21T08:22:40;95612.56;;;6.59;97.26
47763;BME280;33526;42.690;23.322;2024-02-21T08:25:08;95683.09;;;7.38;98.43
47763;BME280;33526;42.690;23.322;2024-02-21T08:28:02;95601.88;;;6.94;95.31
47763;BME280;33526;42.690;23.322;2024-02-21T08:30:30;95601.72;;;7.01;94.60
47763;BME280;33526;42.690;23.322;2024-02-21T08:35:38;95630.16;;;7.25;92.96
47763;BME280;33526;42.690;23.322;2024-02-21T08:38:13;95563.31;;;6.96;91.45
47763;BME280;33526;42.690;23.322;2024-02-21T08:41:05;95630.78;;;7.49;89.68
47763;BME280;33526;42.690;23.322;2024-02-21T08:44:01;95753.66;;;8.46;88.16
47763;BME280;33526;42.690;23.322;2024-02-21T08:46:30;95588.00;;;7.26;87.42
47763;BME280;33526;42.690;23.322;2024-02-21T08:51:28;95619.03;;;7.58;85.19
47763;BME280;33526;42.690;23.322;2024-02-21T08:54:04;95596.47;;;7.69;82.29
47763;BME280;33526;42.690;23.322;2024-02-21T08:56:41;95626.22;;;7.88;81.25
47763;BME280;33526;42.690;23.322;2024-02-21T08:59:22;95592.78;;;7.88;81.93
47763;BME280;33526;42.690;23.322;2024-02-21T09:01:49;95611.78;;;7.77;81.55
47763;BME280;33526;42.690;23.322;2024-02-21T09:04:21;95587.59;;;7.74;81.74
47763;BME280;33526;42.690;23.322;2024-02-21T09:06:51;95614.75;;;7.70;81.14
47763;BME280;33526;42.690;23.322;2024-02-21T09:09:19;95665.53;;;8.36;78.77
47763;BME280;33526;42.690;23.322;2024-02-21T09:12:07;95628.03;;;8.24;77.73
47763;BME280;33526;42.690;23.322;2024-02-21T09:15:00;95763.31;;;9.16;76.79
47763;BME280;33526;42.690;23.322;2024-02-21T09:20:07;95650.41;;;7.91;78.99
47763;BME280;33526;42.690;23.322;2024-02-21T09:25:12;95607.28;;;7.66;78.25
47763;BME280;33526;42.690;23.322;2024-02-21T09:27:39;95680.09;;;8.44;76.92
47763;BME280;33526;42.690;23.322;2024-02-21T09:30:36;95754.31;;;8.96;77.63
47763;BME280;33526;42.690;23.322;2024-02-21T09:33:07;95598.94;;;7.96;77.36
47763;BME280;33526;42.690;23.322;2024-02-21T09:35:44;95762.06;;;9.17;75.92
47763;BME280;33526;42.690;23.322;2024-02-21T09:38:30;95758.47;;;9.04;77.39
47763;BME280;33526;42.690;23.322;2024-02-21T09:41:12;95616.56;;;8.22;74.68
47763;BME280;33526;42.690;23.322;2024-02-21T09:43:54;95676.44;;;8.47;75.16
47763;BME280;33526;42.690;23.322;2024-02-21T09:57:43;95675.81;;;8.68;74.13
47763;BME280;33526;42.690;23.322;2024-02-21T10:17:03;95741.03;;;9.00;70.44
47763;BME280;33526;42.690;23.322;2024-02-21T10:19:55;95633.75;;;8.33;69.88
47763;BME280;33526;42.690;23.322;2024-02-21T10:22:32;95600.31;;;7.75;70.82
47763;BME280;33526;42.690;23.322;2024-02-21T10:33:53;95583.81;;;8.26;66.08
47763;BME280;33526;42.690;23.322;2024-02-21T10:36:26;95557.31;;;8.34;65.64
47763;BME280;33526;42.690;23.322;2024-02-21T10:38:58;95699.03;;;9.59;64.36
47763;BME280;33526;42.690;23.322;2024-02-21T10:41:28;95630.50;;;9.32;63.10
47763;BME280;33526;42.690;23.322;2024-02-21T10:55:10;95610.16;;;10.05;59.14
47763;BME280;33526;42.690;23.322;2024-02-21T11:04:46;95590.00;;;10.10;54.03
47763;BME280;33526;42.690;23.322;2024-02-21T11:14:42;95639.72;;;10.15;53.49
47763;BME280;33526;42.690;23.322;2024-02-21T11:19:48;95480.06;;;9.12;53.67
47763;BME280;33526;42.690;23.322;2024-02-21T11:25:28;95639.72;;;10.50;52.60
47763;BME280;33526;42.690;23.322;2024-02-21T11:35:10;95619.69;;;10.74;50.80
47763;BME280;33526;42.690;23.322;2024-02-21T11:43:20;95468.75;;;9.63;51.61
47763;BME280;33526;42.690;23.322;2024-02-21T11:49:10;95624.69;;;10.57;52.71
47763;BME280;33526;42.690;23.322;2024-02-21T11:52:45;95505.97;;;10.04;51.47
47763;BME280;33526;42.690;23.322;2024-02-21T11:56:03;95519.31;;;9.78;52.25
47763;BME280;33526;42.690;23.322;2024-02-21T12:01:05;95460.28;;;9.54;51.63
47763;BME280;33526;42.690;23.322;2024-02-21T12:06:09;95450.91;;;9.61;51.86
47763;BME280;33526;42.690;23.322;2024-02-21T12:08:46;95613.22;;;10.20;53.72
47763;BME280;33526;42.690;23.322;2024-02-21T12:21:13;95607.00;;;10.03;54.46
47763;BME280;33526;42.690;23.322;2024-02-21T12:23:41;95591.28;;;9.96;54.42
47763;BME280;33526;42.690;23.322;2024-02-21T12:26:17;95428.66;;;9.00;54.21
47763;BME280;33526;42.690;23.322;2024-02-21T12:32:20;95446.03;;;9.17;53.40
47763;BME280;33526;42.690;23.322;2024-02-21T12:35:30;95468.97;;;9.34;53.01
47763;BME280;33526;42.690;23.322;2024-02-21T12:38:27;95580.78;;;10.22;52.17
47763;BME280;33526;42.690;23.322;2024-02-21T12:43:57;95589.41;;;10.50;51.74
47763;BME280;33526;42.690;23.322;2024-02-21T12:46:50;95496.72;;;9.85;52.86
47763;BME280;33526;42.690;23.322;2024-02-21T12:49:28;95510.75;;;9.60;54.76
47763;BME280;33526;42.690;23.322;2024-02-21T12:55:25;95507.06;;;9.28;58.41
47763;BME280;33526;42.690;23.322;2024-02-21T12:58:44;95405.28;;;8.33;62.45
47763;BME280;33526;42.690;23.322;2024-02-21T13:02:15;95442.38;;;8.94;61.47
47763;BME280;33526;42.690;23.322;2024-02-21T13:14:16;95425.22;;;8.32;63.31
47763;BME280;33526;42.690;23.322;2024-02-21T13:16:50;95402.50;;;8.33;63.96
47763;BME280;33526;42.690;23.322;2024-02-21T13:19:21;95470.75;;;8.80;65.18
47763;BME280;33526;42.690;23.322;2024-02-21T13:21:49;95441.19;;;8.83;65.46
47763;BME280;33526;42.690;23.322;2024-02-21T13:24:26;95465.91;;;9.06;63.87
47763;BME280;33526;42.690;23.322;2024-02-21T13:27:20;95551.31;;;9.51;63.68
47763;BME280;33526;42.690;23.322;2024-02-21T13:39:08;95453.69;;;8.65;62.21
47763;BME280;33526;42.690;23.322;2024-02-21T13:49:46;95457.69;;;8.64;63.22
47763;BME280;33526;42.690;23.322;2024-02-21T13:52:21;95519.69;;;8.94;63.74
47763;BME280;33526;42.690;23.322;2024-02-21T13:55:08;95564.06;;;9.27;64.21
47763;BME280;33526;42.690;23.322;2024-02-21T13:57:47;95431.97;;;8.47;65.06
47763;BME280;33526;42.690;23.322;2024-02-21T14:00:26;95472.44;;;8.77;64.76
47763;BME280;33526;42.690;23.322;2024-02-21T14:02:57;95549.16;;;9.21;66.39
47763;BME280;33526;42.690;23.322;2024-02-21T14:05:34;95496.28;;;8.78;68.50
47763;BME280;33526;42.690;23.322;2024-02-21T14:08:26;95470.97;;;8.73;66.79
47763;BME280;33526;42.690;23.322;2024-02-21T14:14:03;95538.53;;;9.28;65.27
47763;BME280;33526;42.690;23.322;2024-02-21T14:19:12;95447.91;;;8.72;65.15
47763;BME280;33526;42.690;23.322;2024-02-21T14:21:38;95544.06;;;9.41;65.11
47763;BME280;33526;42.690;23.322;2024-02-21T14:24:10;95544.06;;;9.41;64.46
47763;BME280;33526;42.690;23.322;2024-02-21T14:26:58;95461.03;;;8.85;64.95
47763;BME280;33526;42.690;23.322;2024-02-21T14:29:27;95397.03;;;8.30;63.69
47763;BME280;33526;42.690;23.322;2024-02-21T14:32:02;95393.59;;;8.26;63.98
47763;BME280;33526;42.690;23.322;2024-02-21T14:34:39;95387.69;;;8.11;65.56
47763;BME280;33526;42.690;23.322;2024-02-21T14:37:05;95355.78;;;7.60;67.02
47763;BME280;33526;42.690;23.322;2024-02-21T14:39:32;95375.84;;;7.81;68.58
47763;BME280;33526;42.690;23.322;2024-02-21T14:49:22;95530.09;;;8.80;71.87
47763;BME280;33526;42.690;23.322;2024-02-21T14:52:17;95340.63;;;7.61;72.61
47763;BME280;33526;42.690;23.322;2024-02-21T14:54:50;95392.88;;;7.70;73.90
47763;BME280;33526;42.690;23.322;2024-02-21T14:57:32;95530.19;;;8.64;73.50
47763;BME280;33526;42.690;23.322;2024-02-21T15:00:17;95385.53;;;7.63;74.05
47763;BME280;33526;42.690;23.322;2024-02-21T15:02:57;95356.19;;;7.46;74.86
47763;BME280;33526;42.690;23.322;2024-02-21T15:05:26;95380.38;;;7.49;75.28
47763;BME280;33526;42.690;23.322;2024-02-21T15:07:56;95540.94;;;8.36;76.09
47763;BME280;33526;42.690;23.322;2024-02-21T15:12:55;95535.84;;;8.48;76.97
47763;BME280;33526;42.690;23.322;2024-02-21T15:15:26;95395.63;;;7.57;75.92
47763;BME280;33526;42.690;23.322;2024-02-21T15:18:02;95464.00;;;8.13;75.01
47763;BME280;33526;42.690;23.322;2024-02-21T15:21:19;95537.97;;;8.44;74.94
47763;BME280;33526;42.690;23.322;2024-02-21T15:24:05;95481.03;;;8.02;75.48
47763;BME280;33526;42.690;23.322;2024-02-21T15:27:15;95444.97;;;7.70;75.63
47763;BME280;33526;42.690;23.322;2024-02-21T15:35:16;95484.22;;;7.88;76.88
47763;BME280;33526;42.690;23.322;2024-02-21T15:37:45;95434.91;;;7.59;77.86
47763;BME280;33526;42.690;23.322;2024-02-21T15:40:19;95532.44;;;8.27;78.13
47763;BME280;33526;42.690;23.322;2024-02-21T15:42:45;95365.88;;;7.12;79.42
47763;BME280;33526;42.690;23.322;2024-02-21T15:48:01;95544.41;;;7.98;82.38
47763;BME280;33526;42.690;23.322;2024-02-21T15:50:44;95473.53;;;7.57;83.75
47763;BME280;33526;42.690;23.322;2024-02-21T15:53:16;95427.31;;;7.18;83.85
47763;BME280;33526;42.690;23.322;2024-02-21T15:58:22;95388.28;;;6.76;86.41
47763;BME280;33526;42.690;23.322;2024-02-21T16:00:49;95550.69;;;7.86;85.88
47763;BME280;33526;42.690;23.322;2024-02-21T16:03:20;95435.81;;;7.11;85.17
47763;BME280;33526;42.690;23.322;2024-02-21T16:06:16;95498.91;;;7.59;83.13
47763;BME280;33526;42.690;23.322;2024-02-21T16:08:49;95559.53;;;7.97;81.83
47763;BME280;33526;42.690;23.322;2024-02-21T16:11:17;95495.13;;;7.53;81.43
47763;BME280;33526;42.690;23.322;2024-02-21T16:13:43;95553.53;;;7.99;83.13
47763;BME280;33526;42.690;23.322;2024-02-21T16:16:17;95491.28;;;7.47;81.65
47763;BME280;33526;42.690;23.322;2024-02-21T16:19:08;95413.38;;;6.88;81.78
47763;BME280;33526;42.690;23.322;2024-02-21T16:21:36;95424.31;;;6.96;81.38
47763;BME280;33526;42.690;23.322;2024-02-21T16:24:05;95413.38;;;6.72;82.62
47763;BME280;33526;42.690;23.322;2024-02-21T16:26:34;95514.44;;;7.44;83.50
47763;BME280;33526;42.690;23.322;2024-02-21T16:29:05;95492.75;;;7.22;82.44
47763;BME280;33526;42.690;23.322;2024-02-21T16:31:37;95407.13;;;6.68;83.74
47763;BME280;33526;42.690;23.322;2024-02-21T16:37:11;95502.28;;;7.21;82.81
47763;BME280;33526;42.690;23.322;2024-02-21T16:39:47;95588.22;;;7.81;82.85
47763;BME280;33526;42.690;23.322;2024-02-21T16:42:24;95427.47;;;6.65;82.96
47763;BME280;33526;42.690;23.322;2024-02-21T16:44:51;95597.53;;;7.75;83.79
47763;BME280;33526;42.690;23.322;2024-02-21T16:47:19;95572.69;;;7.51;84.44
47763;BME280;33526;42.690;23.322;2024-02-21T17:43:38;95637.34;;;7.06;100.00
47763;BME280;33526;42.690;23.322;2024-02-21T17:46:04;95546.34;;;6.37;100.00
47763;BME280;33526;42.690;23.322;2024-02-21T17:48:32;95499.59;;;5.96;100.00
47763;BME280;33526;42.690;23.322;2024-02-21T17:51:01;95634.34;;;6.97;100.00
47763;BME280;33526;42.690;23.322;2024-02-21T17:53:36;95633.13;;;6.81;100.00
47763;BME280;33526;42.690;23.322;2024-02-21T17:59:08;95565.38;;;5.99;100.00
47763;BME280;33526;42.690;23.322;2024-02-21T18:01:43;95566.22;;;5.96;100.00
47763;BME280;33526;42.690;23.322;2024-02-21T18:04:11;95569.53;;;5.87;100.00
47763;BME280;33526;42.690;23.322;2024-02-21T18:06:42;95475.47;;;5.09;100.00
47763;BME280;33526;42.690;23.322;2024-02-21T18:09:22;95486.91;;;5.11;100.00
47763;BME280;33526;42.690;23.322;2024-02-21T18:11:51;95555.84;;;5.56;100.00
47763;BME280;33526;42.690;23.322;2024-02-21T18:14:26;95602.97;;;5.80;100.00
47763;BME280;33526;42.690;23.322;2024-02-21T18:21:58;95678.22;;;6.09;100.00
47763;BME280;33526;42.690;23.322;2024-02-21T18:24:44;95516.28;;;5.08;100.00
47763;BME280;33526;42.690;23.322;2024-02-21T18:27:15;95504.50;;;4.77;100.00
47763;BME280;33526;42.690;23.322;2024-02-21T18:30:04;95647.75;;;5.82;100.00
47763;BME280;33526;42.690;23.322;2024-02-21T18:34:56;95568.81;;;4.92;100.00
47763;BME280;33526;42.690;23.322;2024-02-21T18:40:06;95502.22;;;4.45;100.00
47763;BME280;33526;42.690;23.322;2024-02-21T18:45:08;95493.03;;;4.51;100.00
47763;BME280;33526;42.690;23.322;2024-02-21T18:47:44;95524.41;;;4.72;100.00
47763;BME280;33526;42.690;23.322;2024-02-21T18:50:12;95495.59;;;4.66;100.00
47763;BME280;33526;42.690;23.322;2024-02-21T18:52:41;95576.25;;;5.22;100.00
47763;BME280;33526;42.690;23.322;2024-02-21T18:55:15;95574.56;;;5.28;100.00
47763;BME280;33526;42.690;23.322;2024-02-21T19:00:10;95619.16;;;5.61;100.00
47763;BME280;33526;42.690;23.322;2024-02-21T19:02:43;95505.91;;;4.89;100.00